createdAt,value
2023-03-25T00:01:34.810Z,9.20
2023-03-25T00:04:27.256Z,9.19
2023-03-25T00:07:15.747Z,9.18
2023-03-25T00:10:04.381Z,9.20
2023-03-25T00:12:54.163Z,9.22
2023-03-25T00:15:46.169Z,9.18
2023-03-25T00:18:34.794Z,9.17
2023-03-25T00:21:23.428Z,9.17
2023-03-25T00:24:12.338Z,9.16
2023-03-25T00:27:00.917Z,9.20
2023-03-25T00:29:50.705Z,9.16
2023-03-25T00:32:39.774Z,9.16
2023-03-25T00:35:30.031Z,9.15
2023-03-25T00:38:18.449Z,9.13
2023-03-25T00:41:12.124Z,9.10
2023-03-25T00:44:01.549Z,9.08
2023-03-25T00:46:51.640Z,9.13
2023-03-25T00:49:40.030Z,9.12
2023-03-25T00:52:28.703Z,9.16
2023-03-25T00:55:18.511Z,9.12
2023-03-25T00:58:06.884Z,9.04
2023-03-25T01:00:56.574Z,9.07
2023-03-25T01:03:46.301Z,8.93
2023-03-25T01:06:36.671Z,8.91
2023-03-25T01:09:26.123Z,8.86
2023-03-25T01:12:14.852Z,8.96
2023-03-25T01:15:03.265Z,8.96
2023-03-25T01:17:51.850Z,8.94
2023-03-25T01:20:42.000Z,9.00
2023-03-25T01:23:30.366Z,9.00
2023-03-25T01:26:18.999Z,8.89
2023-03-25T01:29:07.551Z,8.94
2023-03-25T01:31:56.014Z,9.05
2023-03-25T01:34:47.000Z,9.01
2023-03-25T01:37:36.839Z,8.94
2023-03-25T01:40:25.738Z,8.99
2023-03-25T01:43:15.374Z,9.01
2023-03-25T01:46:03.914Z,9.11
2023-03-25T01:48:52.468Z,9.00
2023-03-25T01:51:45.558Z,8.89
2023-03-25T01:54:37.530Z,8.88
2023-03-25T01:57:26.414Z,8.87
2023-03-25T02:00:16.309Z,8.87
2023-03-25T02:03:05.197Z,8.89
2023-03-25T02:05:56.980Z,8.83
2023-03-25T02:08:45.355Z,8.86
2023-03-25T02:11:35.426Z,8.82
2023-03-25T02:14:25.954Z,8.83
2023-03-25T02:17:19.377Z,8.88
2023-03-25T02:20:41.511Z,8.78
2023-03-25T02:23:58.925Z,8.77
2023-03-25T02:27:27.365Z,8.83
2023-03-25T02:30:49.140Z,8.77
2023-03-25T02:34:19.800Z,8.71
2023-03-25T02:37:30.668Z,8.74
2023-03-25T02:40:24.880Z,8.71
2023-03-25T02:43:16.690Z,8.73
2023-03-25T02:46:09.770Z,8.73
2023-03-25T02:49:00.948Z,8.78
2023-03-25T02:51:54.707Z,8.82
2023-03-25T02:54:45.138Z,8.84
2023-03-25T02:57:36.521Z,8.86
2023-03-25T03:00:27.518Z,8.84
2023-03-25T03:03:15.930Z,8.84
2023-03-25T03:06:06.546Z,8.80
2023-03-25T03:09:23.018Z,8.77
2023-03-25T03:12:21.872Z,8.76
2023-03-25T03:15:24.577Z,8.73
2023-03-25T03:18:19.717Z,8.78
2023-03-25T03:21:11.323Z,8.80
2023-03-25T03:24:03.754Z,8.80
2023-03-25T03:26:55.334Z,8.77
2023-03-25T03:29:47.890Z,8.77
2023-03-25T03:32:43.446Z,8.78
2023-03-25T03:35:34.982Z,8.78
2023-03-25T03:38:24.528Z,8.78
2023-03-25T03:41:15.423Z,8.82
2023-03-25T03:44:05.945Z,8.82
2023-03-25T03:46:59.021Z,8.84
2023-03-25T03:49:52.920Z,8.78
2023-03-25T03:52:43.575Z,8.66
2023-03-25T03:55:37.901Z,8.54
2023-03-25T03:58:30.498Z,8.51
2023-03-25T04:01:28.039Z,8.64
2023-03-25T04:04:20.218Z,8.57
2023-03-25T04:07:15.615Z,8.51
2023-03-25T04:10:14.680Z,8.51
2023-03-25T04:13:05.830Z,8.44
2023-03-25T04:15:54.557Z,8.39
2023-03-25T04:18:43.535Z,8.35
2023-03-25T04:21:32.320Z,8.40
2023-03-25T04:24:22.113Z,8.29
2023-03-25T04:27:13.735Z,8.25
2023-03-25T04:30:03.506Z,8.22
2023-03-25T04:32:52.207Z,8.19
2023-03-25T04:35:40.964Z,8.17
2023-03-25T04:38:29.661Z,8.17
2023-03-25T04:41:20.176Z,8.17
2023-03-25T04:44:08.766Z,8.16
2023-03-25T04:46:57.275Z,8.17
2023-03-25T04:49:46.019Z,8.20
2023-03-25T04:52:38.310Z,8.23
2023-03-25T04:55:26.999Z,8.23
2023-03-25T04:58:17.090Z,8.22
2023-03-25T05:01:06.978Z,8.11
2023-03-25T05:03:57.849Z,8.15
2023-03-25T05:06:47.861Z,8.08
2023-03-25T05:09:36.378Z,8.10
2023-03-25T05:12:25.738Z,8.13
2023-03-25T05:15:17.070Z,8.14
2023-03-25T05:18:06.825Z,8.14
2023-03-25T05:20:56.797Z,8.13
2023-03-25T05:23:45.534Z,8.10
2023-03-25T05:26:35.313Z,8.08
2023-03-25T05:29:23.985Z,8.11
2023-03-25T05:32:17.803Z,8.15
2023-03-25T05:35:07.272Z,8.12
2023-03-25T05:37:55.961Z,8.11
2023-03-25T05:40:45.684Z,8.15
2023-03-25T05:43:35.786Z,8.15
2023-03-25T05:46:24.161Z,8.08
2023-03-25T05:49:13.894Z,8.02
2023-03-25T05:52:02.491Z,8.01
2023-03-25T05:54:52.057Z,7.98
2023-03-25T05:57:40.358Z,8.01
2023-03-25T06:00:30.493Z,8.04
2023-03-25T06:03:21.065Z,8.04
2023-03-25T06:06:13.989Z,8.11
2023-03-25T06:09:02.617Z,8.13
2023-03-25T06:11:53.447Z,8.10
2023-03-25T06:14:45.516Z,8.17
2023-03-25T06:17:34.879Z,8.16
2023-03-25T06:20:23.336Z,8.09
2023-03-25T06:23:13.017Z,8.09
2023-03-25T06:26:01.550Z,8.12
2023-03-25T06:28:50.382Z,8.14
2023-03-25T06:31:38.995Z,8.17
2023-03-25T06:34:27.602Z,8.26
2023-03-25T06:37:16.063Z,8.35
2023-03-25T06:40:07.786Z,8.37
2023-03-25T06:42:56.964Z,8.51
2023-03-25T06:46:04.438Z,8.64
2023-03-25T06:49:10.836Z,8.70
2023-03-25T06:51:59.317Z,8.77
2023-03-25T06:54:47.681Z,8.74
2023-03-25T06:57:37.846Z,8.76
2023-03-25T07:00:28.420Z,8.71
2023-03-25T07:03:16.815Z,8.63
2023-03-25T07:06:06.511Z,8.62
2023-03-25T07:08:54.889Z,8.57
2023-03-25T07:11:43.246Z,8.62
2023-03-25T07:14:32.929Z,8.64
2023-03-25T07:17:21.793Z,8.61
2023-03-25T07:20:12.944Z,8.58
2023-03-25T07:23:02.412Z,8.58
2023-03-25T07:25:51.106Z,8.56
2023-03-25T07:28:40.665Z,8.57
2023-03-25T07:31:30.611Z,8.56
2023-03-25T07:34:19.041Z,8.51
2023-03-25T07:37:08.233Z,8.53
2023-03-25T07:39:56.568Z,8.48
2023-03-25T07:42:45.747Z,8.50
2023-03-25T07:45:44.921Z,8.54
2023-03-25T07:48:34.669Z,8.69
2023-03-25T07:51:23.086Z,8.88
2023-03-25T07:54:11.643Z,9.00
2023-03-25T07:57:00.394Z,9.17
2023-03-25T07:59:48.888Z,9.30
2023-03-25T08:02:37.402Z,9.32
2023-03-25T08:05:28.004Z,9.30
2023-03-25T08:08:16.768Z,9.25
2023-03-25T08:11:05.375Z,9.05
2023-03-25T08:13:53.731Z,9.05
2023-03-25T08:16:42.194Z,9.13
2023-03-25T08:19:30.741Z,9.30
2023-03-25T08:22:20.498Z,9.31
2023-03-25T08:25:09.655Z,9.30
2023-03-25T08:27:58.053Z,9.33
2023-03-25T08:30:46.900Z,9.34
2023-03-25T08:33:41.057Z,9.42
2023-03-25T08:36:29.673Z,9.57
2023-03-25T08:39:19.458Z,9.61
2023-03-25T08:42:07.908Z,9.59
2023-03-25T08:44:56.245Z,9.78
2023-03-25T08:47:45.836Z,9.79
2023-03-25T08:50:34.246Z,9.87
2023-03-25T08:53:22.589Z,9.83
2023-03-25T08:56:12.439Z,9.73
2023-03-25T08:59:00.770Z,9.81
2023-03-25T09:01:49.274Z,9.92
2023-03-25T09:04:38.982Z,9.89
2023-03-25T09:07:27.358Z,10.05
2023-03-25T09:10:15.779Z,10.00
2023-03-25T09:13:05.540Z,9.96
2023-03-25T09:15:54.144Z,10.06
2023-03-25T09:18:42.817Z,10.03
2023-03-25T09:21:31.586Z,10.05
2023-03-25T09:24:22.737Z,10.03
2023-03-25T09:27:11.096Z,10.07
2023-03-25T09:30:01.135Z,10.08
2023-03-25T09:32:49.430Z,10.04
2023-03-25T09:35:37.893Z,10.17
2023-03-25T09:38:26.344Z,10.15
2023-03-25T09:41:31.452Z,10.24
2023-03-25T09:44:23.848Z,10.28
2023-03-25T09:47:14.845Z,10.35
2023-03-25T09:50:07.007Z,10.20
2023-03-25T09:52:58.989Z,10.18
2023-03-25T09:55:48.203Z,10.26
2023-03-25T09:58:41.602Z,10.30
2023-03-25T10:01:37.350Z,10.35
2023-03-25T10:04:57.208Z,10.53
2023-03-25T10:07:52.580Z,10.72
2023-03-25T10:10:47.259Z,10.74
2023-03-25T10:13:42.607Z,10.61
2023-03-25T10:16:37.796Z,10.88
2023-03-25T10:19:41.469Z,10.86
2023-03-25T10:22:37.498Z,10.77
2023-03-25T10:25:29.175Z,10.89
2023-03-25T10:28:20.797Z,10.89
2023-03-25T10:31:13.924Z,10.85
2023-03-25T10:34:05.308Z,10.86
2023-03-25T10:36:57.774Z,10.83
2023-03-25T10:39:47.457Z,11.01
2023-03-25T10:42:39.812Z,11.15
2023-03-25T10:45:29.649Z,11.03
2023-03-25T10:48:22.955Z,10.99
2023-03-25T10:51:12.710Z,11.00
2023-03-25T10:54:01.723Z,10.98
2023-03-25T10:56:53.086Z,11.14
2023-03-25T10:59:45.477Z,11.38
2023-03-25T11:02:35.145Z,11.40
2023-03-25T11:05:26.072Z,11.55
2023-03-25T11:08:24.152Z,11.56
2023-03-25T11:11:13.566Z,11.38
2023-03-25T11:14:03.839Z,11.53
2023-03-25T11:16:56.040Z,11.64
2023-03-25T11:19:54.974Z,11.69
2023-03-25T11:22:47.084Z,11.66
2023-03-25T11:25:39.961Z,11.48
2023-03-25T11:28:37.603Z,11.33
2023-03-25T11:31:28.400Z,11.27
2023-03-25T11:34:21.133Z,11.32
2023-03-25T11:37:17.579Z,11.41
2023-03-25T11:40:07.864Z,11.66
2023-03-25T11:42:57.611Z,11.59
2023-03-25T11:45:46.544Z,11.68
2023-03-25T11:48:40.054Z,11.57
2023-03-25T11:51:30.384Z,11.75
2023-03-25T11:54:19.271Z,11.81
2023-03-25T11:57:12.520Z,11.86
2023-03-25T12:00:10.793Z,11.62
2023-03-25T12:03:02.061Z,11.63
2023-03-25T12:06:05.403Z,11.79
2023-03-25T12:08:55.125Z,11.85
2023-03-25T12:11:48.880Z,11.80
2023-03-25T12:14:45.526Z,11.73
2023-03-25T12:17:45.916Z,11.57
2023-03-25T12:20:38.711Z,11.89
2023-03-25T12:23:33.780Z,12.13
2023-03-25T12:26:27.019Z,11.97
2023-03-25T12:29:26.764Z,12.01
2023-03-25T12:32:22.708Z,12.13
2023-03-25T12:35:22.563Z,12.57
2023-03-25T12:38:21.276Z,12.64
2023-03-25T12:41:20.728Z,12.45
2023-03-25T12:44:11.913Z,12.41
2023-03-25T12:47:10.325Z,12.06
2023-03-25T12:50:13.965Z,12.41
2023-03-25T12:53:16.433Z,12.42
2023-03-25T12:56:17.352Z,12.38
2023-03-25T12:59:30.807Z,12.19
2023-03-25T13:02:31.711Z,12.04
2023-03-25T13:05:23.962Z,12.74
2023-03-25T13:08:16.299Z,12.75
2023-03-25T13:11:08.574Z,12.54
2023-03-25T13:14:01.858Z,12.47
2023-03-25T13:16:52.313Z,12.51
2023-03-25T13:19:44.252Z,13.00
2023-03-25T13:22:36.464Z,13.05
2023-03-25T13:25:28.855Z,13.01
2023-03-25T13:28:20.242Z,12.94
2023-03-25T13:31:14.627Z,12.86
2023-03-25T13:34:09.378Z,12.72
2023-03-25T13:37:06.828Z,12.34
2023-03-25T13:40:13.770Z,12.17
2023-03-25T13:43:06.353Z,11.92
2023-03-25T13:45:59.850Z,11.75
2023-03-25T13:48:53.111Z,11.64
2023-03-25T13:51:41.549Z,11.31
2023-03-25T13:54:34.419Z,11.32
2023-03-25T13:57:33.791Z,11.18
2023-03-25T14:00:58.810Z,11.37
2023-03-25T14:04:30.367Z,11.65
2023-03-25T14:08:04.077Z,12.06
2023-03-25T14:10:55.511Z,12.36
2023-03-25T14:13:46.462Z,12.37
2023-03-25T14:16:37.495Z,12.25
2023-03-25T14:19:31.137Z,12.20
2023-03-25T14:22:23.003Z,12.04
2023-03-25T14:25:21.123Z,12.11
2023-03-25T14:28:12.812Z,12.20
2023-03-25T14:31:18.548Z,12.71
2023-03-25T14:34:27.822Z,12.86
2023-03-25T14:37:27.389Z,12.67
2023-03-25T14:41:03.001Z,12.54
2023-03-25T14:44:02.140Z,12.83
2023-03-25T14:46:50.572Z,12.70
2023-03-25T14:49:54.578Z,12.80
2023-03-25T14:52:45.283Z,12.83
2023-03-25T14:55:35.822Z,13.11
2023-03-25T14:58:26.273Z,13.59
2023-03-25T15:01:17.797Z,13.99
2023-03-25T15:04:14.445Z,14.21
2023-03-25T15:07:04.910Z,14.29
2023-03-25T15:09:55.952Z,14.22
2023-03-25T15:12:44.931Z,13.60
2023-03-25T15:15:35.710Z,12.95
2023-03-25T15:19:01.043Z,12.42
2023-03-25T15:22:22.868Z,12.01
2023-03-25T15:25:16.737Z,10.01
2023-03-25T15:28:14.507Z,9.30
2023-03-25T15:31:16.320Z,9.37
2023-03-25T15:34:20.564Z,9.28
2023-03-25T15:37:33.127Z,9.98
2023-03-25T15:40:33.474Z,10.70
2023-03-25T15:44:10.723Z,10.99
2023-03-25T15:47:25.041Z,10.85
2023-03-25T15:50:31.353Z,10.64
2023-03-25T15:53:49.231Z,10.61
2023-03-25T15:56:42.285Z,10.38
2023-03-25T15:59:38.406Z,10.14
2023-03-25T16:02:31.737Z,10.25
2023-03-25T16:05:20.842Z,10.05
2023-03-25T16:08:11.441Z,10.24
2023-03-25T16:11:15.673Z,10.28
2023-03-25T16:14:12.532Z,10.37
2023-03-25T16:17:03.002Z,10.51
2023-03-25T16:19:53.579Z,10.68
2023-03-25T16:22:43.289Z,10.27
2023-03-25T16:25:35.597Z,9.92
2023-03-25T16:28:27.797Z,9.73
2023-03-25T16:31:34.781Z,9.78
2023-03-25T16:34:23.531Z,9.87
2023-03-25T16:37:12.373Z,9.78
2023-03-25T16:40:00.708Z,9.79
2023-03-25T16:42:49.510Z,9.83
2023-03-25T16:45:38.020Z,9.86
2023-03-25T16:48:29.557Z,9.75
2023-03-25T16:51:22.725Z,9.64
2023-03-25T16:54:13.255Z,9.53
2023-03-25T16:57:02.101Z,9.49
2023-03-25T16:59:52.286Z,9.50
2023-03-25T17:02:41.967Z,9.48
2023-03-25T17:05:31.877Z,9.57
2023-03-25T17:08:21.445Z,9.55
2023-03-25T17:11:10.414Z,9.54
2023-03-25T17:14:00.967Z,9.26
2023-03-25T17:16:50.730Z,8.53
2023-03-25T17:19:45.076Z,8.07
2023-03-25T17:22:36.206Z,7.73
2023-03-25T17:25:27.758Z,7.45
2023-03-25T17:28:35.204Z,7.37
2023-03-25T17:31:30.007Z,7.45
2023-03-25T17:34:20.881Z,7.39
2023-03-25T17:37:13.868Z,7.51
2023-03-25T17:40:12.633Z,7.50
2023-03-25T17:43:01.341Z,7.60
2023-03-25T17:45:49.749Z,7.60
2023-03-25T17:48:38.170Z,7.60
2023-03-25T17:51:27.760Z,7.62
2023-03-25T17:54:16.523Z,7.66
2023-03-25T17:57:10.510Z,7.82
2023-03-25T17:59:58.930Z,7.77
2023-03-25T18:02:47.673Z,7.78
2023-03-25T18:05:36.150Z,7.91
2023-03-25T18:08:25.705Z,7.94
2023-03-25T18:11:14.155Z,7.87
2023-03-25T18:14:03.956Z,7.87
2023-03-25T18:16:53.309Z,7.75
2023-03-25T18:19:42.005Z,7.76
2023-03-25T18:22:30.732Z,7.66
2023-03-25T18:25:19.192Z,7.56
2023-03-25T18:28:07.830Z,7.63
2023-03-25T18:30:59.573Z,7.67
2023-03-25T18:33:50.043Z,7.58
2023-03-25T18:36:38.383Z,7.63
2023-03-25T18:39:28.163Z,7.54
2023-03-25T18:42:16.517Z,7.58
2023-03-25T18:45:05.563Z,7.61
2023-03-25T18:47:55.935Z,7.54
2023-03-25T18:50:48.447Z,7.54
2023-03-25T18:53:36.918Z,7.60
2023-03-25T18:56:25.475Z,7.63
2023-03-25T18:59:19.754Z,7.70
2023-03-25T19:02:08.121Z,7.69
2023-03-25T19:05:00.881Z,7.71
2023-03-25T19:07:50.276Z,7.66
2023-03-25T19:10:39.017Z,7.68
2023-03-25T19:13:27.383Z,7.71
2023-03-25T19:16:15.795Z,7.71
2023-03-25T19:19:04.386Z,7.66
2023-03-25T19:21:54.330Z,7.68
2023-03-25T19:24:42.810Z,7.67
2023-03-25T19:27:31.252Z,7.58
2023-03-25T19:30:21.673Z,7.61
2023-03-25T19:33:11.352Z,7.64
2023-03-25T19:36:01.387Z,7.60
2023-03-25T19:38:53.134Z,7.52
2023-03-25T19:41:42.850Z,7.50
2023-03-25T19:44:31.544Z,7.53
2023-03-25T19:47:19.880Z,7.52
2023-03-25T19:50:09.422Z,7.48
2023-03-25T19:52:58.574Z,7.46
2023-03-25T19:55:48.280Z,7.49
2023-03-25T19:58:36.709Z,7.47
2023-03-25T20:01:25.266Z,7.49
2023-03-25T20:04:15.440Z,7.53
2023-03-25T20:07:05.216Z,7.51
2023-03-25T20:09:53.803Z,7.52
2023-03-25T20:12:43.574Z,7.54
2023-03-25T20:15:32.332Z,7.58
2023-03-25T20:18:21.197Z,7.58
2023-03-25T20:21:09.893Z,7.62
2023-03-25T20:23:58.264Z,7.61
2023-03-25T20:26:46.689Z,7.59
2023-03-25T20:29:36.778Z,7.59
2023-03-25T20:32:34.050Z,7.60
2023-03-25T20:35:30.300Z,7.57
2023-03-25T20:38:18.873Z,7.63
2023-03-25T20:41:08.339Z,7.61
2023-03-25T20:43:56.656Z,7.58
2023-03-25T20:46:46.776Z,7.59
2023-03-25T20:49:37.943Z,7.54
2023-03-25T20:52:28.899Z,7.56
2023-03-25T20:55:17.340Z,7.53
2023-03-25T20:58:06.108Z,7.55
2023-03-25T21:00:56.030Z,7.52
2023-03-25T21:03:45.921Z,7.56
2023-03-25T21:06:34.640Z,7.55
2023-03-25T21:09:23.033Z,7.56
2023-03-25T21:12:11.428Z,7.62
2023-03-25T21:14:59.773Z,7.62
2023-03-25T21:17:48.245Z,7.63
2023-03-25T21:20:38.465Z,7.66
2023-03-25T21:23:28.178Z,7.66
2023-03-25T21:26:17.676Z,7.63
2023-03-25T21:29:06.100Z,7.65
2023-03-25T21:31:54.520Z,7.67
2023-03-25T21:34:43.135Z,7.65
2023-03-25T21:37:37.641Z,7.59
2023-03-25T21:40:26.454Z,7.56
2023-03-25T21:43:27.916Z,7.60
2023-03-25T21:46:16.429Z,7.57
2023-03-25T21:49:04.981Z,7.59
2023-03-25T21:51:56.824Z,7.54
2023-03-25T21:54:48.480Z,7.52
2023-03-25T21:57:38.365Z,7.50
2023-03-25T22:00:27.565Z,7.51
2023-03-25T22:03:18.857Z,7.56
2023-03-25T22:06:09.764Z,7.60
2023-03-25T22:08:59.090Z,7.59
2023-03-25T22:11:48.785Z,7.63
2023-03-25T22:14:37.110Z,7.64
2023-03-25T22:17:25.690Z,7.64
2023-03-25T22:20:14.596Z,7.61
2023-03-25T22:23:02.932Z,7.64
2023-03-25T22:25:52.489Z,7.64
2023-03-25T22:28:42.771Z,7.63
2023-03-25T22:31:32.760Z,7.64
2023-03-25T22:34:21.248Z,7.61
2023-03-25T22:37:09.659Z,7.63
2023-03-25T22:39:58.198Z,7.62
2023-03-25T22:42:46.575Z,7.57
2023-03-25T22:45:36.325Z,7.55
2023-03-25T22:48:25.137Z,7.47
2023-03-25T22:51:15.900Z,7.46
2023-03-25T22:54:05.257Z,7.41
2023-03-25T22:56:53.722Z,7.40
2023-03-25T22:59:42.206Z,7.37
2023-03-25T23:02:32.029Z,7.32
2023-03-25T23:05:20.453Z,7.39
2023-03-25T23:12:25.658Z,7.38
2023-03-25T23:15:15.037Z,7.38
2023-03-25T23:18:04.977Z,7.25
2023-03-25T23:20:53.785Z,7.31
2023-03-25T23:23:52.727Z,7.28
2023-03-25T23:26:42.698Z,7.27
2023-03-25T23:29:32.898Z,7.25
2023-03-25T23:32:21.422Z,7.29
2023-03-25T23:35:11.706Z,7.27
2023-03-25T23:38:00.722Z,7.28
2023-03-25T23:40:49.098Z,7.23
2023-03-25T23:43:38.387Z,7.22
2023-03-25T23:46:27.877Z,7.22
2023-03-25T23:49:17.916Z,7.18
2023-03-25T23:52:11.611Z,7.27
2023-03-25T23:55:00.624Z,7.31
2023-03-25T23:57:49.028Z,7.30
